Time;durP1;ratioP1;P1;durP2;ratioP2;P2;SDS_P1;SDS_P2;PMS_P1;PMS_P2;Temp;Humidity;BMP_temperature;BMP_pressure;BME280_temperature;BME280_humidity;BME280_pressure;Samples;Min_cycle;Max_cycle;Signal;HPM_P1;HPM_P2
2021/01/16 00:00:35;;;;;;;18.07;9.73;;;5.70;60.50;;;;;;5051735;28;20493;-55
2021/01/16 00:03:01;;;;;;;18.80;10.00;;;5.70;60.80;;;;;;5077001;28;20463;-56
2021/01/16 00:05:29;;;;;;;15.37;9.60;;;5.80;60.70;;;;;;5065091;28;20041;-52
2021/01/16 00:08:05;;;;;;;15.17;9.43;;;5.70;60.80;;;;;;5070286;28;20139;-53
2021/01/16 00:10:31;;;;;;;18.27;10.07;;;5.70;60.70;;;;;;5079590;28;20047;-50
2021/01/16 00:12:57;;;;;;;15.87;9.50;;;5.70;60.80;;;;;;5079299;28;20101;-51
2021/01/16 00:15:24;;;;;;;14.23;9.10;;;5.60;60.60;;;;;;5076076;28;20059;-55
2021/01/16 00:18:00;;;;;;;16.77;9.47;;;5.70;60.70;;;;;;5080873;28;20044;-55
2021/01/16 00:20:26;;;;;;;11.97;9.13;;;5.60;60.90;;;;;;5075363;28;20542;-56
2021/01/16 00:22:52;;;;;;;14.90;9.30;;;5.60;75.20;;;;;;5081478;28;20127;-55
2021/01/16 00:25:18;;;;;;;15.73;8.93;;;5.60;61.30;;;;;;5077641;28;20040;-56
2021/01/16 00:27:44;;;;;;;16.70;10.27;;;5.60;60.80;;;;;;5065545;28;20067;-55
2021/01/16 00:30:10;;;;;;;17.93;9.43;;;5.60;61.10;;;;;;5069380;28;20064;-51
2021/01/16 00:32:37;;;;;;;14.33;9.03;;;5.50;60.80;;;;;;5084229;28;20044;-51
2021/01/16 00:35:13;;;;;;;14.37;9.53;;;5.50;60.70;;;;;;5074130;28;20082;-51
2021/01/16 00:37:39;;;;;;;19.80;9.60;;;5.50;62.50;;;;;;5081170;28;20432;-52
2021/01/16 00:40:09;;;;;;;16.40;9.27;;;5.50;60.50;;;;;;5047350;28;20029;-59
2021/01/16 00:42:42;;;;;;;16.63;8.83;;;5.60;61.40;;;;;;5054891;28;20070;-55
2021/01/16 00:45:09;;;;;;;15.93;9.17;;;5.50;60.90;;;;;;5075100;28;20056;-56
2021/01/16 00:47:36;;;;;;;20.43;9.43;;;5.50;61.10;;;;;;5077909;28;20476;-53
2021/01/16 00:50:04;;;;;;;17.13;9.80;;;5.50;61.60;;;;;;5076915;28;20040;-55
2021/01/16 00:52:30;;;;;;;12.63;9.03;;;5.50;61.70;;;;;;5061893;28;20111;-55
2021/01/16 00:54:55;;;;;;;14.70;9.43;;;5.50;61.50;;;;;;5071839;28;20406;-55
2021/01/16 00:57:21;;;;;;;13.70;9.70;;;5.50;61.60;;;;;;5080461;28;20051;-55
2021/01/16 00:59:47;;;;;;;15.07;8.67;;;5.40;61.40;;;;;;5076684;28;20047;-54
2021/01/16 01:02:12;;;;;;;10.17;8.07;;;5.40;61.50;;;;;;5077286;28;20047;-51
2021/01/16 01:04:38;;;;;;;15.83;8.30;;;5.40;61.60;;;;;;5076702;28;20132;-54
2021/01/16 01:07:09;;;;;;;11.90;8.23;;;5.50;61.30;;;;;;5076627;28;20131;-55
2021/01/16 01:09:36;;;;;;;13.33;9.53;;;5.50;61.90;;;;;;5079656;28;20040;-53
2021/01/16 01:12:01;;;;;;;13.17;9.10;;;5.50;61.50;;;;;;5069399;28;20040;-56
2021/01/16 01:14:27;;;;;;;14.87;9.27;;;5.50;61.80;;;;;;5077048;28;20406;-52
2021/01/16 01:16:53;;;;;;;13.10;9.47;;;5.50;61.70;;;;;;5071994;28;20036;-55
2021/01/16 01:19:18;;;;;;;12.73;9.43;;;5.40;61.70;;;;;;5080047;28;20036;-55
2021/01/16 01:21:44;;;;;;;12.20;8.47;;;5.40;62.20;;;;;;5079542;28;20055;-53
2021/01/16 01:24:09;;;;;;;13.17;8.80;;;5.40;61.60;;;;;;5080290;28;20095;-52
2021/01/16 01:26:38;;;;;;;13.47;8.87;;;5.30;61.60;;;;;;5075592;28;20064;-55
2021/01/16 01:29:05;;;;;;;11.87;8.60;;;5.30;61.40;;;;;;5085191;28;20035;-53
2021/01/16 01:31:31;;;;;;;14.87;9.60;;;5.30;61.20;;;;;;5063486;28;20055;-55
2021/01/16 01:33:56;;;;;;;13.47;9.30;;;5.20;60.90;;;;;;5081479;28;20020;-55
2021/01/16 01:36:22;;;;;;;18.17;9.37;;;5.20;61.10;;;;;;5063009;28;20508;-55
2021/01/16 01:38:48;;;;;;;13.07;9.20;;;5.20;61.20;;;;;;5074466;28;20103;-51
2021/01/16 01:41:13;;;;;;;14.87;9.13;;;5.20;61.10;;;;;;5071332;28;20052;-56
2021/01/16 01:43:39;;;;;;;12.97;8.67;;;5.20;61.20;;;;;;5081425;28;20040;-55
2021/01/16 01:46:05;;;;;;;14.93;9.30;;;5.30;61.50;;;;;;5076117;28;20044;-55
2021/01/16 01:48:31;;;;;;;12.73;8.73;;;5.20;61.50;;;;;;5061482;28;20175;-55
2021/01/16 01:50:59;;;;;;;10.93;7.90;;;5.20;62.00;;;;;;5077285;28;20044;-52
2021/01/16 01:53:28;;;;;;;12.17;8.67;;;5.30;62.40;;;;;;5072600;28;20040;-56
2021/01/16 01:55:56;;;;;;;11.40;8.40;;;5.20;61.50;;;;;;5076976;28;20094;-52
2021/01/16 01:58:25;;;;;;;13.43;8.93;;;5.20;61.50;;;;;;5071459;28;20040;-56
2021/01/16 02:00:55;;;;;;;14.13;9.13;;;5.20;61.50;;;;;;5076508;28;20048;-56
2021/01/16 02:03:25;;;;;;;12.27;9.23;;;5.20;61.40;;;;;;5072377;28;20554;-55
2021/01/16 02:05:55;;;;;;;13.67;8.77;;;5.20;61.30;;;;;;5073320;28;20137;-55
2021/01/16 02:08:21;;;;;;;11.47;8.93;;;5.30;61.80;;;;;;5076814;28;20089;-57
2021/01/16 02:10:46;;;;;;;15.37;9.40;;;5.30;61.80;;;;;;5073376;28;20028;-56
2021/01/16 02:13:13;;;;;;;14.30;8.67;;;5.30;61.80;;;;;;5075008;28;20032;-56
2021/01/16 02:16:03;;;;;;;13.07;9.37;;;5.20;61.60;;;;;;5074417;28;20032;-55
2021/01/16 02:18:35;;;;;;;13.73;8.20;;;5.30;61.80;;;;;;5070807;28;20032;-54
2021/01/16 02:21:02;;;;;;;12.03;8.77;;;5.20;62.20;;;;;;5080745;28;20071;-55
2021/01/16 02:23:32;;;;;;;12.77;8.10;;;5.20;61.80;;;;;;5070706;28;20109;-55
2021/01/16 02:26:16;;;;;;;12.83;8.43;;;5.20;61.60;;;;;;5075530;28;20041;-55
2021/01/16 02:28:52;;;;;;;11.97;8.40;;;5.20;60.80;;;;;;5073177;28;20443;-55
2021/01/16 02:31:19;;;;;;;12.37;8.77;;;5.20;61.30;;;;;;5078395;28;20085;-54
2021/01/16 02:33:47;;;;;;;12.20;8.40;;;5.10;62.10;;;;;;5077196;28;20044;-55
2021/01/16 02:36:24;;;;;;;11.77;8.60;;;5.20;62.70;;;;;;5077504;28;20442;-57
2021/01/16 02:39:30;;;;;;;15.07;8.73;;;5.20;62.50;;;;;;5072328;28;20055;-55
2021/01/16 02:42:09;;;;;;;14.88;8.75;;;5.20;62.10;;;;;;5023173;28;20055;-54
2021/01/16 02:44:37;;;;;;;14.53;8.80;;;5.10;61.50;;;;;;5076004;28;20033;-55
2021/01/16 02:47:45;;;;;;;12.07;8.23;;;5.10;61.90;;;;;;5085499;28;20089;-54
2021/01/16 02:50:23;;;;;;;10.40;7.40;;;5.10;61.50;;;;;;5046692;28;20120;-54
2021/01/16 02:52:50;;;;;;;11.87;8.33;;;5.10;61.60;;;;;;5075008;28;20033;-55
2021/01/16 02:55:21;;;;;;;12.33;7.87;;;5.10;61.80;;;;;;5074402;28;20060;-54
2021/01/16 02:57:46;;;;;;;11.97;7.50;;;5.10;61.80;;;;;;5075493;28;20039;-53
2021/01/16 03:00:21;;;;;;;12.37;8.87;;;5.10;61.90;;;;;;5075166;28;20112;-55
2021/01/16 03:02:47;;;;;;;11.30;8.40;;;5.10;61.80;;;;;;5080417;28;20056;-56
2021/01/16 03:05:13;;;;;;;12.37;7.57;;;5.10;62.10;;;;;;5074341;28;20063;-54
2021/01/16 03:07:41;;;;;;;11.10;7.90;;;5.10;61.90;;;;;;5074208;28;20044;-55
2021/01/16 03:10:09;;;;;;;11.63;7.50;;;5.20;62.00;;;;;;5068571;28;20032;-54
2021/01/16 03:12:35;;;;;;;11.03;7.03;;;5.20;62.50;;;;;;5081053;28;20548;-51
2021/01/16 03:15:07;;;;;;;9.73;7.40;;;5.20;61.60;;;;;;5068273;28;20068;-54
2021/01/16 03:17:45;;;;;;;12.07;7.43;;;5.20;62.20;;;;;;5070859;28;20488;-56
2021/01/16 03:20:13;;;;;;;11.60;7.43;;;5.30;62.00;;;;;;5062218;28;20227;-52
2021/01/16 03:22:39;;;;;;;9.73;6.97;;;5.30;62.00;;;;;;5072711;28;20092;-55
2021/01/16 03:25:05;;;;;;;10.43;7.93;;;5.40;62.10;;;;;;5074704;28;20432;-53
2021/01/16 03:27:31;;;;;;;10.80;7.93;;;5.40;61.90;;;;;;5071651;28;20414;-56
2021/01/16 03:29:57;;;;;;;11.63;7.20;;;5.50;61.50;;;;;;5078519;28;20040;-53
2021/01/16 03:32:23;;;;;;;9.77;7.17;;;5.50;61.30;;;;;;5072489;28;20127;-54
2021/01/16 03:34:49;;;;;;;15.70;7.10;;;5.50;60.80;;;;;;5080176;28;20036;-54
2021/01/16 03:37:17;;;;;;;11.50;7.30;;;5.60;61.10;;;;;;5073752;28;20069;-52
2021/01/16 03:39:42;;;;;;;9.30;7.57;;;5.50;61.10;;;;;;5077599;28;20098;-55
2021/01/16 03:42:58;;;;;;;12.37;7.30;;;5.50;61.60;;;;;;5071421;28;20510;-56
2021/01/16 03:45:24;;;;;;;12.37;7.37;;;5.50;61.20;;;;;;5053250;28;20051;-55
2021/01/16 03:47:50;;;;;;;12.43;7.60;;;5.40;61.90;;;;;;5072766;28;20111;-53
2021/01/16 03:50:16;;;;;;;13.50;7.67;;;5.40;62.00;;;;;;5081706;28;20060;-53
2021/01/16 03:52:42;;;;;;;9.60;7.13;;;5.50;62.30;;;;;;5076587;28;20457;-53
2021/01/16 03:55:09;;;;;;;11.60;7.23;;;5.50;62.00;;;;;;5078603;28;20120;-53
2021/01/16 03:57:35;;;;;;;11.63;7.93;;;5.50;61.90;;;;;;5076504;28;20501;-53
2021/01/16 04:00:04;;;;;;;14.33;8.33;;;5.60;62.20;;;;;;5083168;28;20047;-54
2021/01/16 04:02:29;;;;;;;12.50;8.00;;;5.60;62.10;;;;;;5081790;28;20400;-56
2021/01/16 04:04:55;;;;;;;10.57;7.70;;;5.70;61.60;;;;;;5073926;28;20028;-55
2021/01/16 04:07:20;;;;;;;13.10;9.23;;;5.60;62.20;;;;;;5071410;28;20079;-56
2021/01/16 04:09:46;;;;;;;12.70;8.50;;;5.60;62.20;;;;;;5082992;28;20032;-55
2021/01/16 04:12:12;;;;;;;12.63;8.00;;;5.60;62.00;;;;;;5072867;28;20036;-54
2021/01/16 04:14:39;;;;;;;11.47;8.53;;;5.70;62.10;;;;;;5082324;28;20037;-55
2021/01/16 04:17:06;;;;;;;12.23;8.37;;;5.70;61.90;;;;;;5085181;28;20120;-55
2021/01/16 04:19:31;;;;;;;10.80;7.50;;;5.70;62.40;;;;;;5077859;28;20386;-52
2021/01/16 04:21:57;;;;;;;15.10;9.73;;;5.80;62.00;;;;;;5078310;28;20044;-52
2021/01/16 04:24:23;;;;;;;15.63;8.60;;;5.80;62.50;;;;;;5078888;28;20040;-53
2021/01/16 04:26:49;;;;;;;16.60;9.10;;;5.80;62.80;;;;;;5076797;28;20063;-58
2021/01/16 04:29:15;;;;;;;13.00;8.33;;;5.80;62.40;;;;;;5061989;28;20131;-56
2021/01/16 04:31:41;;;;;;;11.03;7.90;;;5.80;62.90;;;;;;5081424;28;20123;-56
2021/01/16 04:34:07;;;;;;;9.83;7.70;;;5.70;62.80;;;;;;5071770;28;20081;-51
2021/01/16 04:36:32;;;;;;;14.13;8.53;;;5.70;62.50;;;;;;5081906;28;20079;-54
2021/01/16 04:38:58;;;;;;;15.13;8.57;;;5.70;63.00;;;;;;5073441;28;20075;-55
2021/01/16 04:41:25;;;;;;;15.67;8.90;;;5.80;63.00;;;;;;5079171;28;20200;-53
2021/01/16 04:43:52;;;;;;;13.80;9.00;;;5.80;62.50;;;;;;5074515;28;20048;-53
2021/01/16 04:46:19;;;;;;;13.97;8.80;;;5.80;62.30;;;;;;5084689;28;20104;-54
2021/01/16 04:48:49;;;;;;;16.60;8.77;;;5.80;62.50;;;;;;5065792;28;20029;-52
2021/01/16 04:51:16;;;;;;;11.37;8.40;;;5.80;62.50;;;;;;5078115;28;20040;-52
2021/01/16 04:53:46;;;;;;;15.60;8.60;;;5.80;62.20;;;;;;5080181;28;20089;-56
2021/01/16 04:56:12;;;;;;;11.83;8.57;;;5.80;62.50;;;;;;5077991;28;20032;-54
2021/01/16 04:58:39;;;;;;;14.57;8.77;;;5.80;62.20;;;;;;5081843;28;20028;-55
2021/01/16 05:01:06;;;;;;;15.93;8.97;;;5.80;62.10;;;;;;5062740;28;20072;-52
2021/01/16 05:03:43;;;;;;;15.13;8.77;;;5.90;62.40;;;;;;5083137;28;20438;-54
2021/01/16 05:06:12;;;;;;;16.37;8.80;;;5.90;61.90;;;;;;5071503;28;20039;-53
2021/01/16 05:08:39;;;;;;;13.33;8.97;;;5.80;62.50;;;;;;5079683;28;20075;-52
2021/01/16 05:11:25;;;;;;;17.50;9.77;;;5.80;62.60;;;;;;5078213;28;20066;-53
2021/01/16 05:14:10;;;;;;;14.30;9.60;;;5.70;62.10;;;;;;5061877;28;20047;-54
2021/01/16 05:16:53;;;;;;;16.55;10.55;;;5.60;63.20;;;;;;5043843;28;20493;-56
2021/01/16 05:19:22;;;;;;;14.23;9.53;;;5.60;63.40;;;;;;5079931;28;20043;-53
2021/01/16 05:21:47;;;;;;;15.70;9.60;;;5.50;63.70;;;;;;5081222;28;20036;-54
2021/01/16 05:24:15;;;;;;;14.63;10.23;;;5.50;64.10;;;;;;5081203;28;20043;-54
2021/01/16 05:27:05;;;;;;;16.27;10.20;;;5.40;63.60;;;;;;5074870;28;20044;-53
2021/01/16 05:29:33;;;;;;;15.30;9.87;;;5.50;64.90;;;;;;5049090;28;20055;-54
2021/01/16 05:32:01;;;;;;;19.60;10.83;;;5.50;64.00;;;;;;5075070;28;20542;-55
2021/01/16 05:34:28;;;;;;;16.80;10.23;;;5.40;64.20;;;;;;5083336;28;20097;-55
2021/01/16 05:36:56;;;;;;;18.03;10.17;;;5.50;63.90;;;;;;5072281;28;20039;-52
2021/01/16 05:39:25;;;;;;;13.23;9.73;;;5.40;64.30;;;;;;5082827;28;20028;-51
2021/01/16 05:42:04;;;;;;;13.93;10.07;;;5.50;64.30;;;;;;5072253;28;20490;-51
2021/01/16 05:44:31;;;;;;;14.23;9.63;;;5.50;64.10;;;;;;5052295;28;20173;-54
2021/01/16 05:46:57;;;;;;;17.27;10.43;;;5.50;64.70;;;;;;5077223;28;20077;-54
2021/01/16 05:49:24;;;;;;;16.53;10.00;;;5.50;64.60;;;;;;5062057;28;20044;-53
2021/01/16 05:51:51;;;;;;;15.30;9.57;;;5.50;64.50;;;;;;5068832;28;20036;-54
2021/01/16 05:54:18;;;;;;;16.30;10.27;;;5.50;64.20;;;;;;5069662;28;20047;-54
2021/01/16 05:56:45;;;;;;;19.93;10.93;;;5.40;64.00;;;;;;5068195;28;20116;-54
2021/01/16 05:59:14;;;;;;;19.87;11.10;;;5.40;64.40;;;;;;5077928;28;20039;-56
2021/01/16 06:01:44;;;;;;;15.37;11.27;;;5.40;65.10;;;;;;5073429;28;20060;-54
2021/01/16 06:04:20;;;;;;;14.30;10.77;;;5.40;64.60;;;;;;5079650;28;20517;-53
2021/01/16 06:06:47;;;;;;;15.53;10.37;;;5.50;65.00;;;;;;5077951;28;20131;-54
2021/01/16 06:09:18;;;;;;;18.00;11.03;;;5.50;64.90;;;;;;5078731;28;20158;-54
2021/01/16 06:11:46;;;;;;;14.70;10.00;;;5.40;64.90;;;;;;5071187;28;20085;-55
2021/01/16 06:14:12;;;;;;;13.57;10.23;;;5.40;64.80;;;;;;5080270;28;20051;-54
2021/01/16 06:16:55;;;;;;;14.40;10.90;;;5.50;64.70;;;;;;5079322;28;20032;-56
2021/01/16 06:19:23;;;;;;;16.20;10.43;;;5.60;65.10;;;;;;5074383;28;20085;-55
2021/01/16 06:21:50;;;;;;;13.67;10.73;;;5.50;64.90;;;;;;5079809;28;20049;-55
2021/01/16 06:24:22;;;;;;;16.93;11.10;;;5.50;65.20;;;;;;5059173;28;20119;-55
2021/01/16 06:26:58;;;;;;;13.93;10.87;;;5.50;64.70;;;;;;5078865;28;20028;-55
2021/01/16 06:29:53;;;;;;;18.07;10.77;;;5.50;64.40;;;;;;5078938;28;20059;-52
2021/01/16 06:32:21;;;;;;;13.90;11.30;;;5.50;64.80;;;;;;5058184;28;20037;-55
2021/01/16 06:34:47;;;;;;;17.30;11.73;;;5.50;64.70;;;;;;5070953;28;20066;-55
2021/01/16 06:37:15;;;;;;;15.53;11.87;;;5.50;64.80;;;;;;5079218;28;20441;-52
2021/01/16 06:39:47;;;;;;;18.70;11.77;;;5.50;64.60;;;;;;5073100;28;20504;-54
2021/01/16 06:42:24;;;;;;;16.00;11.33;;;5.50;64.70;;;;;;5066910;28;20044;-51
2021/01/16 06:45:03;;;;;;;24.17;13.00;;;5.50;64.40;;;;;;5055747;28;20063;-50
2021/01/16 06:47:32;;;;;;;22.23;11.60;;;5.40;65.50;;;;;;5073705;28;20044;-53
2021/01/16 06:49:58;;;;;;;18.23;11.57;;;5.30;65.30;;;;;;5070612;28;20064;-54
2021/01/16 06:52:43;;;;;;;22.53;12.27;;;5.30;65.30;;;;;;5065715;28;20049;-52
2021/01/16 06:55:15;;;;;;;17.40;10.60;;;5.40;65.90;;;;;;5055718;28;20035;-52
2021/01/16 06:57:41;;;;;;;19.27;11.50;;;5.20;65.60;;;;;;5074592;28;20490;-54
2021/01/16 07:00:08;;;;;;;18.23;11.23;;;5.20;65.40;;;;;;5073541;28;20047;-53
2021/01/16 07:02:35;;;;;;;14.50;12.07;;;5.20;65.30;;;;;;5076291;28;20048;-53
2021/01/16 07:05:07;;;;;;;15.53;10.63;;;5.20;65.60;;;;;;5076923;28;20036;-56
2021/01/16 07:07:38;;;;;;;16.60;11.23;;;5.20;65.50;;;;;;5081329;28;20126;-56
2021/01/16 07:10:08;;;;;;;17.83;10.80;;;5.10;66.10;;;;;;5082795;28;20105;-54
2021/01/16 07:12:35;;;;;;;18.17;11.40;;;5.00;65.30;;;;;;5073432;28;20122;-55
2021/01/16 07:15:06;;;;;;;20.50;11.70;;;5.10;65.70;;;;;;5083281;28;20044;-53
2021/01/16 07:17:32;;;;;;;18.10;10.67;;;5.20;65.30;;;;;;5083586;28;20035;-56
2021/01/16 07:19:59;;;;;;;14.47;10.80;;;5.10;66.00;;;;;;5079596;28;20036;-54
2021/01/16 07:22:29;;;;;;;19.23;10.80;;;5.10;65.40;;;;;;5085698;28;20044;-54
2021/01/16 07:24:56;;;;;;;16.70;10.53;;;5.10;65.50;;;;;;5060132;28;20032;-55
2021/01/16 07:27:24;;;;;;;15.07;10.23;;;5.10;65.80;;;;;;5085840;28;20542;-56
2021/01/16 07:29:50;;;;;;;18.27;10.73;;;5.00;66.00;;;;;;5081334;28;20458;-55
2021/01/16 07:32:16;;;;;;;15.47;9.67;;;5.00;65.40;;;;;;5082518;28;20032;-56
2021/01/16 07:34:44;;;;;;;19.80;10.37;;;4.90;66.20;;;;;;5084723;28;20501;-54
2021/01/16 07:37:11;;;;;;;17.37;10.73;;;5.00;66.60;;;;;;5066841;28;20063;-55
2021/01/16 07:39:40;;;;;;;17.37;10.03;;;5.00;66.30;;;;;;5072881;28;20047;-55
2021/01/16 07:42:13;;;;;;;15.67;10.93;;;4.90;65.90;;;;;;5065738;28;20044;-55
2021/01/16 07:44:44;;;;;;;14.40;10.07;;;4.90;66.10;;;;;;5085856;28;20040;-55
2021/01/16 07:47:21;;;;;;;15.20;9.80;;;5.00;66.30;;;;;;5067069;28;20068;-53
2021/01/16 07:49:56;;;;;;;17.83;10.87;;;4.90;65.90;;;;;;5082997;28;20428;-54
2021/01/16 07:52:27;;;;;;;13.93;10.13;;;4.90;66.30;;;;;;5079403;28;20039;-55
2021/01/16 07:55:06;;;;;;;12.93;10.23;;;4.80;66.10;;;;;;5090339;28;20501;-54
2021/01/16 07:57:33;;;;;;;13.50;9.50;;;4.90;66.60;;;;;;5051859;28;20036;-56
2021/01/16 08:00:08;;;;;;;15.33;9.63;;;5.00;65.90;;;;;;5088222;28;20110;-56
2021/01/16 08:02:40;;;;;;;15.68;9.45;;;4.90;66.20;;;;;;5083383;28;20051;-53
2021/01/16 08:05:26;;;;;;;14.33;9.87;;;4.90;66.50;;;;;;5087881;28;20050;-53
2021/01/16 08:08:19;;;;;;;16.70;10.33;;;5.00;66.60;;;;;;5077028;28;20381;-51
2021/01/16 08:10:52;;;;;;;16.20;10.57;;;5.00;66.40;;;;;;5057588;28;20066;-56
2021/01/16 08:13:21;;;;;;;18.83;10.03;;;5.00;66.60;;;;;;5079861;28;20040;-55
2021/01/16 08:15:49;;;;;;;16.00;10.53;;;5.00;66.30;;;;;;5077544;28;20127;-54
2021/01/16 08:18:20;;;;;;;24.03;11.27;;;5.00;66.40;;;;;;5067374;28;20036;-54
2021/01/16 08:20:48;;;;;;;17.57;10.17;;;5.00;65.70;;;;;;5084292;28;20516;-53
2021/01/16 08:23:22;;;;;;;21.93;10.67;;;5.00;65.80;;;;;;5076570;28;20024;-55
2021/01/16 08:25:48;;;;;;;15.90;10.15;;;5.10;65.40;;;;;;5075543;28;20032;-55
2021/01/16 08:28:26;;;;;;;16.73;10.90;;;5.10;66.00;;;;;;5081800;28;20070;-51
2021/01/16 08:30:52;;;;;;;16.10;10.73;;;5.20;65.20;;;;;;5063326;28;20169;-55
2021/01/16 08:33:30;;;;;;;25.00;10.93;;;5.10;65.80;;;;;;5075880;28;20541;-54
2021/01/16 08:35:55;;;;;;;16.63;11.30;;;5.20;66.10;;;;;;5082053;28;20064;-55
2021/01/16 08:38:23;;;;;;;17.43;10.13;;;5.20;65.90;;;;;;5071092;28;20547;-54
2021/01/16 08:40:53;;;;;;;17.93;10.67;;;5.30;65.80;;;;;;5081810;28;20048;-53
2021/01/16 08:43:37;;;;;;;16.77;10.60;;;5.30;65.20;;;;;;5071000;28;20040;-54
2021/01/16 08:46:10;;;;;;;16.67;10.23;;;5.40;65.60;;;;;;5053389;28;20052;-55
2021/01/16 08:48:37;;;;;;;18.27;10.70;;;5.40;65.50;;;;;;5071038;28;20046;-56
2021/01/16 08:51:30;;;;;;;17.73;11.90;;;5.50;65.40;;;;;;5075502;28;20521;-51
2021/01/16 08:54:25;;;;;;;20.73;12.90;;;5.60;66.30;;;;;;5076467;28;20048;-54
2021/01/16 08:57:01;;;;;;;17.60;13.77;;;5.60;65.60;;;;;;5043139;28;20041;-54
2021/01/16 08:59:34;;;;;;;20.77;12.53;;;5.60;65.80;;;;;;5075604;28;20406;-55
2021/01/16 09:02:13;;;;;;;15.10;11.43;;;5.70;65.20;;;;;;5055516;28;20056;-58
2021/01/16 09:04:42;;;;;;;22.67;12.03;;;;;;;;;;5061438;28;20566;-52
2021/01/16 09:07:14;;;;;;;16.70;11.33;;;6.40;62.00;;;;;;5083226;28;20089;-54
2021/01/16 09:09:40;;;;;;;15.63;11.10;;;6.70;60.60;;;;;;5069687;28;20068;-55
2021/01/16 09:12:09;;;;;;;15.60;10.87;;;6.50;60.50;;;;;;5078153;28;20043;-56
2021/01/16 09:14:38;;;;;;;17.30;11.77;;;6.10;61.50;;;;;;5074696;28;20406;-56
2021/01/16 09:17:21;;;;;;;14.37;10.30;;;6.00;62.80;;;;;;5081065;28;20036;-54
2021/01/16 09:19:57;;;;;;;13.90;10.73;;;6.00;61.90;;;;;;5078001;28;20036;-53
2021/01/16 09:22:26;;;;;;;17.83;11.87;;;5.80;62.40;;;;;;5075515;28;20040;-55
2021/01/16 09:24:52;;;;;;;19.57;12.00;;;5.80;62.80;;;;;;5072834;28;20043;-54
2021/01/16 09:27:21;;;;;;;18.07;12.50;;;5.80;63.20;;;;;;5079835;28;20489;-56
2021/01/16 09:29:47;;;;;;;19.60;11.83;;;5.80;63.60;;;;;;5075991;28;20362;-52
2021/01/16 09:32:31;;;;;;;18.80;12.97;;;5.80;63.70;;;;;;5063423;28;20123;-56
2021/01/16 09:34:57;;;;;;;17.90;12.57;;;5.90;63.90;;;;;;5076095;28;20048;-54
2021/01/16 09:37:24;;;;;;;17.50;12.23;;;5.80;63.80;;;;;;5082836;28;20058;-56
2021/01/16 09:40:04;;;;;;;25.47;13.40;;;5.80;64.00;;;;;;5074543;28;20461;-56
2021/01/16 09:42:30;;;;;;;17.07;12.57;;;5.80;63.50;;;;;;5069550;28;20524;-55
2021/01/16 09:44:57;;;;;;;20.33;13.10;;;5.80;63.80;;;;;;5072194;28;20044;-58
2021/01/16 09:47:25;;;;;;;21.03;13.07;;;5.90;64.30;;;;;;5073708;28;20036;-56
2021/01/16 09:50:02;;;;;;;23.63;14.43;;;5.90;64.70;;;;;;5078089;28;20408;-54
2021/01/16 09:52:28;;;;;;;19.17;13.87;;;5.90;64.30;;;;;;5073363;28;20032;-54
2021/01/16 09:54:56;;;;;;;19.47;14.00;;;6.00;64.60;;;;;;5076704;28;20098;-51
2021/01/16 09:57:37;;;;;;;23.63;14.27;;;5.90;64.60;;;;;;5069721;28;20468;-54
2021/01/16 10:00:09;;;;;;;21.20;15.20;;;6.00;65.40;;;;;;5055663;28;20485;-55
2021/01/16 10:02:39;;;;;;;25.87;14.77;;;6.00;65.20;;;;;;5056792;28;20041;-54
2021/01/16 10:05:37;;;;;;;24.10;14.17;;;6.00;64.80;;;;;;5079569;28;20039;-54
2021/01/16 10:08:04;;;;;;;22.30;14.20;;;6.00;65.60;;;;;;5040014;28;20032;-53
2021/01/16 10:10:50;;;;;;;16.30;13.23;;;6.00;65.70;;;;;;5068339;28;20111;-53
2021/01/16 10:13:34;;;;;;;20.57;14.30;;;6.10;64.70;;;;;;5081158;28;20843;-55
2021/01/16 10:16:04;;;;;;;16.70;12.73;;;6.10;64.10;;;;;;5072191;28;20520;-52
2021/01/16 10:18:32;;;;;;;17.63;12.50;;;6.10;62.90;;;;;;5052820;28;20389;-56
2021/01/16 10:20:59;;;;;;;19.97;13.50;;;6.10;63.10;;;;;;5069127;28;20036;-55
2021/01/16 10:23:29;;;;;;;20.13;13.03;;;6.10;62.80;;;;;;5077888;28;20052;-55
2021/01/16 10:26:00;;;;;;;17.73;12.37;;;6.20;63.00;;;;;;5068189;28;20502;-54
2021/01/16 10:28:31;;;;;;;17.53;12.87;;;6.30;63.90;;;;;;5073618;28;20099;-52
2021/01/16 10:30:59;;;;;;;17.80;11.80;;;6.20;62.30;;;;;;5080096;28;20047;-56
2021/01/16 10:33:28;;;;;;;20.53;12.60;;;6.30;61.20;;;;;;5074418;28;20068;-53
2021/01/16 10:36:06;;;;;;;16.10;12.00;;;6.30;61.50;;;;;;5080315;28;20032;-55
2021/01/16 10:38:48;;;;;;;17.10;11.93;;;6.30;61.60;;;;;;5057720;28;20125;-54
2021/01/16 10:41:32;;;;;;;18.63;12.80;;;6.30;61.70;;;;;;5075354;28;20044;-54
2021/01/16 10:44:10;;;;;;;18.57;12.93;;;6.40;61.30;;;;;;5066910;28;20033;-56
2021/01/16 10:46:45;;;;;;;20.30;12.97;;;6.40;62.10;;;;;;5077372;28;20462;-54
2021/01/16 10:49:16;;;;;;;16.37;12.73;;;6.40;61.90;;;;;;5058772;28;20093;-55
2021/01/16 10:51:57;;;;;;;22.00;12.83;;;6.40;61.80;;;;;;5078268;28;20067;-53
2021/01/16 10:54:24;;;;;;;15.07;12.67;;;6.50;61.40;;;;;;5053887;28;20505;-54
2021/01/16 10:57:05;;;;;;;17.33;13.70;;;6.50;61.60;;;;;;5078929;28;20052;-55
2021/01/16 10:59:33;;;;;;;15.90;13.20;;;6.50;60.70;;;;;;5075750;28;20059;-52
2021/01/16 11:02:09;;;;;;;19.40;13.50;;;6.50;61.00;;;;;;5075598;28;20474;-55
2021/01/16 11:04:39;;;;;;;17.67;13.07;;;6.60;61.90;;;;;;5071349;28;20040;-57
2021/01/16 11:07:09;;;;;;;19.60;13.50;;;6.60;60.20;;;;;;5079361;28;20040;-57
2021/01/16 11:09:34;;;;;;;19.67;12.43;;;6.60;60.60;;;;;;5069938;28;20048;-57
2021/01/16 11:12:05;;;;;;;15.43;12.13;;;6.60;60.70;;;;;;5079942;28;20044;-57
2021/01/16 11:14:39;;;;;;;16.97;12.97;;;6.70;61.20;;;;;;5073839;28;20036;-55
2021/01/16 11:17:07;;;;;;;19.13;13.80;;;6.80;60.90;;;;;;5078909;28;20036;-56
2021/01/16 11:19:44;;;;;;;18.03;12.37;;;6.70;59.90;;;;;;5076770;28;20039;-55
2021/01/16 11:22:11;;;;;;;21.60;14.33;;;6.80;59.80;;;;;;5077625;28;20057;-57
2021/01/16 11:25:06;;;;;;;17.60;12.63;;;6.70;60.50;;;;;;5058600;28;20446;-56
2021/01/16 11:27:35;;;;;;;17.75;12.48;;;6.90;60.40;;;;;;5056861;28;20036;-55
2021/01/16 11:30:14;;;;;;;14.77;12.77;;;6.90;60.30;;;;;;5077803;28;20094;-53
2021/01/16 11:32:40;;;;;;;14.50;11.60;;;6.90;58.90;;;;;;5080602;28;20066;-56
2021/01/16 11:35:12;;;;;;;17.50;12.90;;;6.80;58.70;;;;;;5075380;28;20505;-55
2021/01/16 11:37:51;;;;;;;16.93;11.93;;;6.90;60.00;;;;;;5073519;28;20473;-57
2021/01/16 11:40:31;;;;;;;15.60;12.00;;;7.00;59.40;;;;;;5075616;28;20036;-54
2021/01/16 11:43:04;;;;;;;15.57;11.93;;;7.00;58.90;;;;;;5080302;28;20056;-56
2021/01/16 11:45:30;;;;;;;16.87;11.33;;;7.00;59.40;;;;;;5069980;28;20394;-56
2021/01/16 11:47:58;;;;;;;15.53;10.90;;;7.00;58.90;;;;;;5073725;28;20032;-56
2021/01/16 11:50:26;;;;;;;13.77;10.93;;;7.00;56.50;;;;;;5078391;28;20131;-57
2021/01/16 11:52:51;;;;;;;14.60;10.57;;;7.00;57.60;;;;;;5081502;28;20036;-57
2021/01/16 11:55:18;;;;;;;15.10;9.57;;;6.90;57.40;;;;;;5061080;28;20370;-57
2021/01/16 11:57:45;;;;;;;14.93;10.77;;;7.00;57.70;;;;;;5078053;28;20066;-55
2021/01/16 12:00:15;;;;;;;18.10;10.47;;;7.00;57.00;;;;;;5073554;28;20040;-50
2021/01/16 12:02:51;;;;;;;13.67;10.90;;;7.10;57.30;;;;;;5083278;28;20051;-56
2021/01/16 12:05:18;;;;;;;11.53;10.33;;;7.20;57.00;;;;;;5073664;28;20032;-54
2021/01/16 12:07:49;;;;;;;15.53;10.40;;;7.00;56.70;;;;;;5078574;28;20094;-52
2021/01/16 12:10:26;;;;;;;18.40;11.87;;;7.00;55.60;;;;;;5082595;28;20040;-55
2021/01/16 12:12:53;;;;;;;13.20;11.43;;;7.10;57.20;;;;;;5078223;28;20530;-53
2021/01/16 12:15:20;;;;;;;15.93;12.07;;;7.10;57.30;;;;;;5070768;28;20082;-53
2021/01/16 12:17:49;;;;;;;16.27;12.37;;;7.10;57.30;;;;;;5074273;28;20052;-55
2021/01/16 12:20:21;;;;;;;18.77;11.30;;;7.20;57.30;;;;;;5081633;28;20041;-54
2021/01/16 12:22:50;;;;;;;14.63;11.13;;;7.20;57.90;;;;;;5075439;28;20052;-56
2021/01/16 12:25:17;;;;;;;16.90;10.33;;;7.20;56.90;;;;;;5075538;28;20478;-56
2021/01/16 12:27:46;;;;;;;13.77;10.77;;;7.20;57.60;;;;;;5077787;28;20496;-56
2021/01/16 12:30:12;;;;;;;14.50;10.07;;;7.20;56.80;;;;;;5079713;28;20510;-54
2021/01/16 12:32:39;;;;;;;15.53;10.83;;;7.20;56.80;;;;;;5075261;28;20040;-53
2021/01/16 12:35:05;;;;;;;14.57;11.40;;;7.30;56.40;;;;;;5081714;28;20039;-56
2021/01/16 12:37:36;;;;;;;13.80;10.10;;;7.30;56.60;;;;;;5078660;28;20047;-57
2021/01/16 12:40:06;;;;;;;13.73;10.20;;;7.40;57.10;;;;;;5077926;28;20064;-57
2021/01/16 12:42:35;;;;;;;15.73;10.93;;;7.30;55.90;;;;;;5078800;28;20044;-56
2021/01/16 12:45:06;;;;;;;15.20;11.37;;;7.30;56.90;;;;;;5080339;28;20043;-57
2021/01/16 12:47:32;;;;;;;13.23;10.83;;;7.30;56.50;;;;;;5074224;28;20028;-56
2021/01/16 12:49:59;;;;;;;16.40;10.97;;;7.30;57.00;;;;;;5085550;28;20375;-59
2021/01/16 12:52:27;;;;;;;12.90;10.03;;;7.30;55.30;;;;;;5058000;28;20043;-55
2021/01/16 12:54:57;;;;;;;12.37;10.90;;;7.30;55.40;;;;;;5079069;28;20051;-52
2021/01/16 12:57:33;;;;;;;13.77;10.80;;;7.40;55.90;;;;;;5073391;28;20035;-54